createdAt,value
2024-03-07T00:16:27.528Z,1003
2024-03-07T00:45:41.904Z,1003
2024-03-07T01:14:45.159Z,1003
2024-03-07T01:43:38.044Z,1003
2024-03-07T02:12:43.531Z,1002
2024-03-07T02:41:48.880Z,1002
2024-03-07T03:10:56.961Z,1002
2024-03-07T03:40:05.816Z,1002
2024-03-07T04:09:14.537Z,1002
2024-03-07T04:38:27.348Z,1002
2024-03-07T05:07:28.469Z,1001
2024-03-07T05:36:36.672Z,1001
2024-03-07T06:05:49.815Z,1002
2024-03-07T06:34:59.810Z,1001
2024-03-07T07:04:08.794Z,1001
2024-03-07T07:33:16.288Z,1001
2024-03-07T08:02:09.318Z,1001
2024-03-07T08:31:19.727Z,1001
2024-03-07T09:00:40.861Z,1001
2024-03-07T09:29:22.313Z,1001
2024-03-07T09:58:32.049Z,1001
2024-03-07T10:27:41.201Z,1001
2024-03-07T10:56:42.878Z,1001
2024-03-07T11:25:48.406Z,1001
2024-03-07T11:55:01.507Z,1000
2024-03-07T12:24:17.512Z,1000
2024-03-07T12:53:26.221Z,1000
2024-03-07T13:22:34.733Z,1000
2024-03-07T13:51:55.869Z,1000
2024-03-07T14:21:07.821Z,999
2024-03-07T14:50:16.502Z,999
2024-03-07T15:19:28.938Z,999
2024-03-07T15:48:44.951Z,999
2024-03-07T16:17:56.913Z,998
2024-03-07T16:47:11.313Z,998
2024-03-07T17:16:12.095Z,998
2024-03-07T17:45:21.565Z,998
2024-03-07T18:14:31.290Z,998
2024-03-07T18:43:40.373Z,998
2024-03-07T19:12:49.737Z,998
2024-03-07T19:42:10.890Z,998
2024-03-07T20:10:44.509Z,998
2024-03-07T20:40:05.711Z,998
2024-03-07T21:08:30.613Z,997
2024-03-07T21:37:33.699Z,997
2024-03-07T22:06:47.997Z,997
2024-03-07T22:36:01.368Z,996
2024-03-07T23:05:05.422Z,996
2024-03-07T23:34:19.951Z,996
